RJAW(METAR)
07/17 15:00
METAR RJAW 170600Z 12011KT 9999 FEW010 SCT230 30/27 Q1013 RMK 2CU010
A2992=
戻る
トップページへ戻る
IMOC Co,.Ltd.